sensor_id;sensor_type;location;lat;lon;timestamp;pressure;altitude;pressure_sealevel;temperature;humidity
66164;BME280;52962;51.088;3.096;2023-09-19T00:00:39;100659.09;;;15.31;nan
66164;BME280;52962;51.088;3.096;2023-09-19T00:03:09;100658.22;;;15.36;nan
66164;BME280;52962;51.088;3.096;2023-09-19T00:05:39;100667.94;;;15.42;nan
66164;BME280;52962;51.088;3.096;2023-09-19T00:08:12;100661.75;;;15.43;nan
66164;BME280;52962;51.088;3.096;2023-09-19T00:10:42;100668.81;;;15.47;nan
66164;BME280;52962;51.088;3.096;2023-09-19T00:13:12;100667.91;;;15.47;nan
66164;BME280;52962;51.088;3.096;2023-09-19T00:15:43;100672.34;;;15.43;nan
66164;BME280;52962;51.088;3.096;2023-09-19T00:18:17;100660.84;;;15.41;nan
66164;BME280;52962;51.088;3.096;2023-09-19T00:20:45;100669.69;;;15.45;nan
66164;BME280;52962;51.088;3.096;2023-09-19T00:23:14;100665.28;;;15.37;nan
66164;BME280;52962;51.088;3.096;2023-09-19T00:25:43;100677.69;;;15.34;nan
66164;BME280;52962;51.088;3.096;2023-09-19T00:28:13;100681.22;;;15.30;nan
66164;BME280;52962;51.088;3.096;2023-09-19T00:30:44;100685.66;;;15.28;nan
66164;BME280;52962;51.088;3.096;2023-09-19T00:33:12;100684.75;;;15.24;nan
66164;BME280;52962;51.088;3.096;2023-09-19T00:35:47;100678.59;;;15.19;nan
66164;BME280;52962;51.088;3.096;2023-09-19T00:38:15;100678.59;;;15.15;nan
66164;BME280;52962;51.088;3.096;2023-09-19T00:40:44;100678.59;;;15.13;nan
66164;BME280;52962;51.088;3.096;2023-09-19T00:43:14;100682.13;;;15.14;nan
66164;BME280;52962;51.088;3.096;2023-09-19T00:45:47;100685.66;;;15.10;nan
66164;BME280;52962;51.088;3.096;2023-09-19T00:48:16;100681.25;;;15.02;nan
66164;BME280;52962;51.088;3.096;2023-09-19T00:50:47;100686.53;;;15.05;nan
66164;BME280;52962;51.088;3.096;2023-09-19T00:53:19;100683.00;;;15.10;nan
66164;BME280;52962;51.088;3.096;2023-09-19T00:55:48;100691.84;;;15.09;nan
66164;BME280;52962;51.088;3.096;2023-09-19T00:58:18;100691.84;;;15.05;nan
66164;BME280;52962;51.088;3.096;2023-09-19T01:00:48;100690.97;;;15.05;nan
66164;BME280;52962;51.088;3.096;2023-09-19T01:03:17;100691.84;;;15.02;nan
66164;BME280;52962;51.088;3.096;2023-09-19T01:05:46;100698.91;;;15.02;nan
66164;BME280;52962;51.088;3.096;2023-09-19T01:08:14;100691.84;;;15.02;nan
66164;BME280;52962;51.088;3.096;2023-09-19T01:10:43;100706.88;;;14.88;nan
66164;BME280;52962;51.088;3.096;2023-09-19T01:13:25;100701.56;;;14.87;nan
66164;BME280;52962;51.088;3.096;2023-09-19T01:16:02;100708.63;;;14.83;nan
66164;BME280;52962;51.088;3.096;2023-09-19T01:18:39;100713.94;;;14.85;nan
66164;BME280;52962;51.088;3.096;2023-09-19T01:21:15;100705.97;;;14.83;nan
66164;BME280;52962;51.088;3.096;2023-09-19T01:24:06;100712.16;;;14.85;nan
66164;BME280;52962;51.088;3.096;2023-09-19T01:26:56;100716.59;;;14.83;nan
66164;BME280;52962;51.088;3.096;2023-09-19T01:29:38;100713.06;;;14.87;nan
66164;BME280;52962;51.088;3.096;2023-09-19T01:32:08;100714.81;;;14.88;nan
66164;BME280;52962;51.088;3.096;2023-09-19T01:34:44;100707.75;;;14.90;nan
66164;BME280;52962;51.088;3.096;2023-09-19T01:37:16;100700.69;;;14.92;nan
66164;BME280;52962;51.088;3.096;2023-09-19T01:39:50;100701.56;;;14.91;nan
66164;BME280;52962;51.088;3.096;2023-09-19T01:42:27;100695.38;;;14.89;nan
66164;BME280;52962;51.088;3.096;2023-09-19T01:45:03;100695.38;;;14.89;nan
66164;BME280;52962;51.088;3.096;2023-09-19T01:47:41;100695.38;;;14.91;nan
66164;BME280;52962;51.088;3.096;2023-09-19T01:50:15;100693.63;;;14.91;nan
66164;BME280;52962;51.088;3.096;2023-09-19T01:52:49;100691.84;;;14.93;nan
66164;BME280;52962;51.088;3.096;2023-09-19T01:55:22;100679.47;;;14.95;nan
66164;BME280;52962;51.088;3.096;2023-09-19T01:58:00;100690.97;;;14.96;nan
66164;BME280;52962;51.088;3.096;2023-09-19T02:00:32;100694.50;;;14.98;nan
66164;BME280;52962;51.088;3.096;2023-09-19T02:03:04;100691.84;;;14.96;nan
66164;BME280;52962;51.088;3.096;2023-09-19T02:05:32;100683.00;;;15.03;nan
66164;BME280;52962;51.088;3.096;2023-09-19T02:08:00;100685.66;;;15.03;nan
66164;BME280;52962;51.088;3.096;2023-09-19T02:10:29;100697.16;;;15.09;nan
66164;BME280;52962;51.088;3.096;2023-09-19T02:12:58;100692.72;;;15.12;nan
66164;BME280;52962;51.088;3.096;2023-09-19T02:15:27;100708.66;;;15.14;nan
66164;BME280;52962;51.088;3.096;2023-09-19T02:17:55;100711.28;;;15.14;nan
66164;BME280;52962;51.088;3.096;2023-09-19T02:20:25;100714.84;;;15.19;nan
66164;BME280;52962;51.088;3.096;2023-09-19T02:22:53;100718.38;;;15.21;nan
66164;BME280;52962;51.088;3.096;2023-09-19T02:25:21;100711.28;;;15.23;nan
66164;BME280;52962;51.088;3.096;2023-09-19T02:27:49;100712.19;;;15.22;nan
66164;BME280;52962;51.088;3.096;2023-09-19T02:30:21;100717.47;;;15.20;nan
66164;BME280;52962;51.088;3.096;2023-09-19T02:32:52;100717.47;;;15.14;nan
66164;BME280;52962;51.088;3.096;2023-09-19T02:35:20;100717.47;;;15.16;nan
66164;BME280;52962;51.088;3.096;2023-09-19T02:37:50;100722.78;;;15.17;nan
66164;BME280;52962;51.088;3.096;2023-09-19T02:40:18;100724.56;;;15.18;nan
66164;BME280;52962;51.088;3.096;2023-09-19T02:42:47;100730.75;;;15.19;nan
66164;BME280;52962;51.088;3.096;2023-09-19T02:45:17;100719.25;;;15.18;nan
66164;BME280;52962;51.088;3.096;2023-09-19T02:47:46;100720.13;;;15.19;nan
66164;BME280;52962;51.088;3.096;2023-09-19T02:50:15;100726.31;;;15.18;nan
66164;BME280;52962;51.088;3.096;2023-09-19T02:52:44;100716.59;;;15.17;nan
66164;BME280;52962;51.088;3.096;2023-09-19T02:55:16;100708.66;;;15.17;nan
66164;BME280;52962;51.088;3.096;2023-09-19T02:57:47;100711.28;;;15.17;nan
66164;BME280;52962;51.088;3.096;2023-09-19T03:00:16;100715.72;;;15.16;nan
66164;BME280;52962;51.088;3.096;2023-09-19T03:02:48;100714.84;;;15.16;nan
66164;BME280;52962;51.088;3.096;2023-09-19T03:05:16;100726.31;;;15.16;nan
66164;BME280;52962;51.088;3.096;2023-09-19T03:07:45;100720.13;;;15.13;nan
66164;BME280;52962;51.088;3.096;2023-09-19T03:10:15;100714.84;;;15.13;nan
66164;BME280;52962;51.088;3.096;2023-09-19T03:12:44;100731.63;;;15.09;nan
66164;BME280;52962;51.088;3.096;2023-09-19T03:15:13;100732.53;;;15.17;nan
66164;BME280;52962;51.088;3.096;2023-09-19T03:17:45;100714.84;;;15.13;nan
66164;BME280;52962;51.088;3.096;2023-09-19T03:20:19;100713.06;;;15.15;nan
66164;BME280;52962;51.088;3.096;2023-09-19T03:22:49;100713.06;;;15.13;nan
66164;BME280;52962;51.088;3.096;2023-09-19T03:25:19;100714.84;;;15.10;nan
66164;BME280;52962;51.088;3.096;2023-09-19T03:27:51;100720.13;;;15.07;nan
66164;BME280;52962;51.088;3.096;2023-09-19T03:30:22;100713.94;;;15.04;nan
66164;BME280;52962;51.088;3.096;2023-09-19T03:32:50;100719.25;;;15.06;nan
66164;BME280;52962;51.088;3.096;2023-09-19T03:35:19;100721.03;;;15.05;nan
66164;BME280;52962;51.088;3.096;2023-09-19T03:37:47;100719.25;;;15.08;nan
66164;BME280;52962;51.088;3.096;2023-09-19T03:40:16;100716.59;;;15.06;nan
66164;BME280;52962;51.088;3.096;2023-09-19T03:42:49;100728.09;;;15.07;nan
66164;BME280;52962;51.088;3.096;2023-09-19T03:45:17;100722.78;;;15.10;nan
66164;BME280;52962;51.088;3.096;2023-09-19T03:47:51;100712.19;;;15.10;nan
66164;BME280;52962;51.088;3.096;2023-09-19T03:50:22;100703.34;;;15.08;nan
66164;BME280;52962;51.088;3.096;2023-09-19T03:52:56;100700.69;;;15.04;nan
66164;BME280;52962;51.088;3.096;2023-09-19T03:55:24;100713.06;;;15.01;nan
66164;BME280;52962;51.088;3.096;2023-09-19T03:57:54;100714.84;;;14.97;nan
66164;BME280;52962;51.088;3.096;2023-09-19T04:00:23;100716.59;;;14.98;nan
66164;BME280;52962;51.088;3.096;2023-09-19T04:02:53;100717.47;;;15.00;nan
66164;BME280;52962;51.088;3.096;2023-09-19T04:05:23;100718.38;;;14.99;nan
66164;BME280;52962;51.088;3.096;2023-09-19T04:07:51;100718.38;;;14.95;nan
66164;BME280;52962;51.088;3.096;2023-09-19T04:10:20;100718.38;;;14.92;nan
66164;BME280;52962;51.088;3.096;2023-09-19T04:12:52;100720.13;;;14.87;nan
66164;BME280;52962;51.088;3.096;2023-09-19T04:15:23;100732.50;;;14.86;nan
66164;BME280;52962;51.088;3.096;2023-09-19T04:17:54;100746.63;;;14.88;nan
66164;BME280;52962;51.088;3.096;2023-09-19T04:20:22;100749.28;;;14.87;nan
66164;BME280;52962;51.088;3.096;2023-09-19T04:22:51;100754.59;;;14.87;nan
66164;BME280;52962;51.088;3.096;2023-09-19T04:25:20;100750.16;;;14.83;nan
66164;BME280;52962;51.088;3.096;2023-09-19T04:27:48;100755.47;;;14.83;nan
66164;BME280;52962;51.088;3.096;2023-09-19T04:30:16;100758.13;;;14.83;nan
66164;BME280;52962;51.088;3.096;2023-09-19T04:32:46;100754.59;;;14.87;nan
66164;BME280;52962;51.088;3.096;2023-09-19T04:35:18;100751.94;;;14.88;nan
66164;BME280;52962;51.088;3.096;2023-09-19T04:37:47;100740.47;;;14.91;nan
66164;BME280;52962;51.088;3.096;2023-09-19T04:40:15;100744.00;;;14.93;nan
66164;BME280;52962;51.088;3.096;2023-09-19T04:42:45;100750.19;;;14.93;nan
66164;BME280;52962;51.088;3.096;2023-09-19T04:45:13;100746.66;;;14.97;nan
66164;BME280;52962;51.088;3.096;2023-09-19T04:47:42;100738.69;;;14.97;nan
66164;BME280;52962;51.088;3.096;2023-09-19T04:50:12;100733.41;;;14.99;nan
66164;BME280;52962;51.088;3.096;2023-09-19T04:52:41;100732.50;;;14.98;nan
66164;BME280;52962;51.088;3.096;2023-09-19T04:55:12;100728.97;;;14.93;nan
66164;BME280;52962;51.088;3.096;2023-09-19T04:57:44;100727.19;;;14.89;nan
66164;BME280;52962;51.088;3.096;2023-09-19T05:00:14;100734.28;;;14.87;nan
66164;BME280;52962;51.088;3.096;2023-09-19T05:02:44;100725.44;;;14.84;nan
66164;BME280;52962;51.088;3.096;2023-09-19T05:05:14;100726.31;;;14.83;nan
66164;BME280;52962;51.088;3.096;2023-09-19T05:07:44;100744.88;;;14.81;nan
66164;BME280;52962;51.088;3.096;2023-09-19T05:10:13;100748.41;;;14.83;nan
66164;BME280;52962;51.088;3.096;2023-09-19T05:12:42;100736.91;;;14.83;nan
66164;BME280;52962;51.088;3.096;2023-09-19T05:15:14;100742.22;;;14.83;nan
66164;BME280;52962;51.088;3.096;2023-09-19T05:17:47;100741.34;;;14.82;nan
66164;BME280;52962;51.088;3.096;2023-09-19T05:20:22;100758.13;;;14.84;nan
66164;BME280;52962;51.088;3.096;2023-09-19T05:22:58;100766.06;;;14.84;nan
66164;BME280;52962;51.088;3.096;2023-09-19T05:25:28;100763.44;;;14.84;nan
66164;BME280;52962;51.088;3.096;2023-09-19T05:27:58;100750.19;;;14.87;nan
66164;BME280;52962;51.088;3.096;2023-09-19T05:30:29;100752.81;;;14.89;nan
66164;BME280;52962;51.088;3.096;2023-09-19T05:32:58;100759.91;;;14.99;nan
66164;BME280;52962;51.088;3.096;2023-09-19T05:35:27;100750.19;;;15.02;nan
66164;BME280;52962;51.088;3.096;2023-09-19T05:37:55;100764.34;;;15.04;nan
66164;BME280;52962;51.088;3.096;2023-09-19T05:40:25;100757.25;;;14.97;nan
66164;BME280;52962;51.088;3.096;2023-09-19T05:42:54;100759.03;;;14.95;nan
66164;BME280;52962;51.088;3.096;2023-09-19T05:45:22;100759.91;;;15.00;nan
66164;BME280;52962;51.088;3.096;2023-09-19T05:47:50;100757.25;;;15.00;nan
66164;BME280;52962;51.088;3.096;2023-09-19T05:50:23;100746.66;;;15.03;nan
66164;BME280;52962;51.088;3.096;2023-09-19T05:52:53;100748.44;;;15.04;nan
66164;BME280;52962;51.088;3.096;2023-09-19T05:55:23;100755.50;;;15.09;nan
66164;BME280;52962;51.088;3.096;2023-09-19T05:57:52;100756.38;;;15.11;nan
66164;BME280;52962;51.088;3.096;2023-09-19T06:00:21;100748.44;;;15.11;nan
66164;BME280;52962;51.088;3.096;2023-09-19T06:02:51;100756.38;;;15.11;nan
66164;BME280;52962;51.088;3.096;2023-09-19T06:05:21;100749.31;;;15.11;nan
66164;BME280;52962;51.088;3.096;2023-09-19T06:07:50;100756.38;;;15.15;nan
66164;BME280;52962;51.088;3.096;2023-09-19T06:10:20;100762.59;;;15.19;nan
66164;BME280;52962;51.088;3.096;2023-09-19T06:12:50;100761.69;;;15.23;nan
66164;BME280;52962;51.088;3.096;2023-09-19T06:15:18;100766.13;;;15.24;nan
66164;BME280;52962;51.088;3.096;2023-09-19T06:17:48;100776.72;;;15.30;nan
66164;BME280;52962;51.088;3.096;2023-09-19T06:20:17;100781.16;;;15.32;nan
66164;BME280;52962;51.088;3.096;2023-09-19T06:22:47;100782.91;;;15.35;nan
66164;BME280;52962;51.088;3.096;2023-09-19T06:25:15;100781.16;;;15.37;nan
66164;BME280;52962;51.088;3.096;2023-09-19T06:27:48;100775.84;;;15.40;nan
66164;BME280;52962;51.088;3.096;2023-09-19T06:30:20;100764.34;;;15.41;nan
66164;BME280;52962;51.088;3.096;2023-09-19T06:32:48;100771.41;;;15.42;nan
66164;BME280;52962;51.088;3.096;2023-09-19T06:35:16;100775.84;;;15.46;nan
66164;BME280;52962;51.088;3.096;2023-09-19T06:37:45;100770.53;;;15.49;nan
66164;BME280;52962;51.088;3.096;2023-09-19T06:40:14;100767.00;;;15.55;nan
66164;BME280;52962;51.088;3.096;2023-09-19T06:42:45;100764.34;;;15.55;nan
66164;BME280;52962;51.088;3.096;2023-09-19T06:45:15;100765.25;;;15.58;nan
66164;BME280;52962;51.088;3.096;2023-09-19T06:47:46;100763.44;;;15.62;nan
66164;BME280;52962;51.088;3.096;2023-09-19T06:50:17;100766.97;;;15.68;nan
66164;BME280;52962;51.088;3.096;2023-09-19T06:52:47;100766.09;;;15.71;nan
66164;BME280;52962;51.088;3.096;2023-09-19T06:55:17;100766.97;;;15.75;nan
66164;BME280;52962;51.088;3.096;2023-09-19T06:57:47;100762.53;;;15.77;nan
66164;BME280;52962;51.088;3.096;2023-09-19T07:00:17;100750.13;;;15.79;nan
66164;BME280;52962;51.088;3.096;2023-09-19T07:02:56;100756.31;;;15.82;nan
66164;BME280;52962;51.088;3.096;2023-09-19T07:05:26;100762.50;;;15.86;nan
66164;BME280;52962;51.088;3.096;2023-09-19T07:07:55;100759.84;;;15.87;nan
66164;BME280;52962;51.088;3.096;2023-09-19T07:10:25;100754.53;;;15.89;nan
66164;BME280;52962;51.088;3.096;2023-09-19T07:12:57;100757.19;;;15.95;nan
66164;BME280;52962;51.088;3.096;2023-09-19T07:15:28;100743.88;;;15.98;nan
66164;BME280;52962;51.088;3.096;2023-09-19T07:17:57;100742.97;;;16.05;nan
66164;BME280;52962;51.088;3.096;2023-09-19T07:20:27;100745.63;;;16.08;nan
66164;BME280;52962;51.088;3.096;2023-09-19T07:22:59;100742.94;;;16.14;nan
66164;BME280;52962;51.088;3.096;2023-09-19T07:25:28;100747.34;;;16.21;nan
66164;BME280;52962;51.088;3.096;2023-09-19T07:27:57;100753.53;;;16.26;nan
66164;BME280;52962;51.088;3.096;2023-09-19T07:30:29;100748.19;;;16.28;nan
66164;BME280;52962;51.088;3.096;2023-09-19T07:32:57;100751.72;;;16.33;nan
66164;BME280;52962;51.088;3.096;2023-09-19T07:35:25;100749.03;;;16.38;nan
66164;BME280;52962;51.088;3.096;2023-09-19T07:37:53;100746.38;;;16.41;nan
66164;BME280;52962;51.088;3.096;2023-09-19T07:40:24;100751.66;;;16.50;nan
66164;BME280;52962;51.088;3.096;2023-09-19T07:42:54;100746.31;;;16.53;nan
66164;BME280;52962;51.088;3.096;2023-09-19T07:45:22;100744.50;;;16.58;nan
66164;BME280;52962;51.088;3.096;2023-09-19T07:47:53;100740.97;;;16.59;nan
66164;BME280;52962;51.088;3.096;2023-09-19T07:50:22;100743.59;;;16.63;nan
66164;BME280;52962;51.088;3.096;2023-09-19T07:52:50;100743.56;;;16.70;nan
66164;BME280;52962;51.088;3.096;2023-09-19T07:55:19;100745.28;;;16.78;nan
66164;BME280;52962;51.088;3.096;2023-09-19T07:57:50;100743.44;;;16.86;nan
66164;BME280;52962;51.088;3.096;2023-09-19T08:00:19;100737.22;;;16.89;nan
66164;BME280;52962;51.088;3.096;2023-09-19T08:02:47;100725.66;;;16.96;nan
66164;BME280;52962;51.088;3.096;2023-09-19T08:05:25;100717.69;;;16.91;nan
66164;BME280;52962;51.088;3.096;2023-09-19T08:07:53;100718.56;;;16.96;nan
66164;BME280;52962;51.088;3.096;2023-09-19T08:10:23;100715.81;;;17.07;nan
66164;BME280;52962;51.088;3.096;2023-09-19T08:12:55;100716.66;;;17.12;nan
66164;BME280;52962;51.088;3.096;2023-09-19T08:15:25;100712.16;;;17.19;nan
66164;BME280;52962;51.088;3.096;2023-09-19T08:17:54;100717.47;;;17.19;nan
66164;BME280;52962;51.088;3.096;2023-09-19T08:20:22;100713.06;;;17.18;nan
66164;BME280;52962;51.088;3.096;2023-09-19T08:22:53;100708.59;;;17.20;nan
66164;BME280;52962;51.088;3.096;2023-09-19T08:25:22;100704.97;;;17.28;nan
66164;BME280;52962;51.088;3.096;2023-09-19T08:27:52;100703.16;;;17.32;nan
66164;BME280;52962;51.088;3.096;2023-09-19T08:30:21;100712.00;;;17.37;nan
66164;BME280;52962;51.088;3.096;2023-09-19T08:32:57;100715.47;;;17.45;nan
66164;BME280;52962;51.088;3.096;2023-09-19T08:35:26;100708.38;;;17.44;nan
66164;BME280;52962;51.088;3.096;2023-09-19T08:37:57;100718.06;;;17.51;nan
66164;BME280;52962;51.088;3.096;2023-09-19T08:40:27;100708.28;;;17.53;nan
66164;BME280;52962;51.088;3.096;2023-09-19T08:42:57;100703.81;;;17.55;nan
66164;BME280;52962;51.088;3.096;2023-09-19T08:45:26;100709.09;;;17.60;nan
66164;BME280;52962;51.088;3.096;2023-09-19T08:48:02;100714.44;;;17.58;nan
66164;BME280;52962;51.088;3.096;2023-09-19T08:50:36;100715.28;;;17.62;nan
66164;BME280;52962;51.088;3.096;2023-09-19T08:53:11;100709.06;;;17.63;nan
66164;BME280;52962;51.088;3.096;2023-09-19T08:55:43;100713.53;;;17.62;nan
66164;BME280;52962;51.088;3.096;2023-09-19T08:58:16;100714.41;;;17.61;nan
66164;BME280;52962;51.088;3.096;2023-09-19T09:00:52;100713.56;;;17.56;nan
66164;BME280;52962;51.088;3.096;2023-09-19T09:03:22;100717.16;;;17.52;nan
66164;BME280;52962;51.088;3.096;2023-09-19T09:05:51;100706.47;;;17.57;nan
66164;BME280;52962;51.088;3.096;2023-09-19T09:08:22;100695.75;;;17.64;nan
66164;BME280;52962;51.088;3.096;2023-09-19T09:10:51;100699.19;;;17.73;nan
66164;BME280;52962;51.088;3.096;2023-09-19T09:13:19;100698.22;;;17.81;nan
66164;BME280;52962;51.088;3.096;2023-09-19T09:15:49;100699.84;;;17.94;nan
66164;BME280;52962;51.088;3.096;2023-09-19T09:18:17;100706.69;;;18.15;nan
66164;BME280;52962;51.088;3.096;2023-09-19T09:20:45;100701.91;;;18.40;nan
66164;BME280;52962;51.088;3.096;2023-09-19T09:23:15;100697.22;;;18.57;nan
66164;BME280;52962;51.088;3.096;2023-09-19T09:25:49;100692.59;;;18.72;nan
66164;BME280;52962;51.088;3.096;2023-09-19T09:28:23;100702.06;;;18.89;nan
66164;BME280;52962;51.088;3.096;2023-09-19T09:30:54;100700.03;;;19.05;nan
66164;BME280;52962;51.088;3.096;2023-09-19T09:33:22;100690.09;;;19.15;nan
66164;BME280;52962;51.088;3.096;2023-09-19T09:35:51;100692.63;;;19.22;nan
66164;BME280;52962;51.088;3.096;2023-09-19T09:38:21;100679.41;;;19.15;nan
66164;BME280;52962;51.088;3.096;2023-09-19T09:40:55;100684.34;;;18.85;nan
66164;BME280;52962;51.088;3.096;2023-09-19T09:43:35;100682.50;;;18.90;nan
66164;BME280;52962;51.088;3.096;2023-09-19T09:46:07;100688.69;;;18.92;nan
66164;BME280;52962;51.088;3.096;2023-09-19T09:48:45;100681.28;;;19.10;nan
66164;BME280;52962;51.088;3.096;2023-09-19T09:51:34;100681.22;;;19.13;nan
66164;BME280;52962;51.088;3.096;2023-09-19T09:54:09;100680.31;;;19.14;nan
66164;BME280;52962;51.088;3.096;2023-09-19T09:56:53;100686.09;;;19.39;nan
66164;BME280;52962;51.088;3.096;2023-09-19T09:59:48;100692.56;;;19.75;nan
66164;BME280;52962;51.088;3.096;2023-09-19T10:02:19;100683.13;;;20.00;nan
66164;BME280;52962;51.088;3.096;2023-09-19T10:04:57;100683.47;;;20.25;nan
66164;BME280;52962;51.088;3.096;2023-09-19T10:07:41;100682.63;;;20.23;nan
66164;BME280;52962;51.088;3.096;2023-09-19T10:10:29;100674.25;;;20.41;nan
66164;BME280;52962;51.088;3.096;2023-09-19T10:13:07;100665.91;;;20.55;nan
66164;BME280;52962;51.088;3.096;2023-09-19T10:15:39;100675.63;;;20.59;nan
66164;BME280;52962;51.088;3.096;2023-09-19T10:18:14;100679.31;;;20.53;nan
66164;BME280;52962;51.088;3.096;2023-09-19T10:20:46;100668.19;;;20.72;nan
66164;BME280;52962;51.088;3.096;2023-09-19T10:23:18;100676.31;;;20.67;nan
66164;BME280;52962;51.088;3.096;2023-09-19T10:25:50;100682.03;;;20.52;nan
66164;BME280;52962;51.088;3.096;2023-09-19T10:28:21;100667.00;;;20.46;nan
66164;BME280;52962;51.088;3.096;2023-09-19T10:30:51;100683.84;;;20.50;nan
66164;BME280;52962;51.088;3.096;2023-09-19T10:33:22;100679.38;;;20.50;nan
66164;BME280;52962;51.088;3.096;2023-09-19T10:35:54;100674.84;;;20.54;nan
66164;BME280;52962;51.088;3.096;2023-09-19T10:38:25;100670.50;;;20.48;nan
66164;BME280;52962;51.088;3.096;2023-09-19T10:40:56;100670.59;;;20.45;nan
66164;BME280;52962;51.088;3.096;2023-09-19T10:43:31;100678.56;;;20.47;nan
66164;BME280;52962;51.088;3.096;2023-09-19T10:46:06;100689.13;;;20.53;nan
66164;BME280;52962;51.088;3.096;2023-09-19T10:48:38;100679.59;;;20.41;nan
66164;BME280;52962;51.088;3.096;2023-09-19T10:51:10;100677.34;;;20.62;nan
66164;BME280;52962;51.088;3.096;2023-09-19T10:53:43;100665.44;;;20.75;nan
66164;BME280;52962;51.088;3.096;2023-09-19T10:56:19;100654.63;;;20.79;nan
66164;BME280;52962;51.088;3.096;2023-09-19T10:58:51;100661.88;;;20.74;nan
66164;BME280;52962;51.088;3.096;2023-09-19T11:01:20;100656.53;;;20.74;nan
66164;BME280;52962;51.088;3.096;2023-09-19T11:04:21;100659.50;;;20.62;nan
66164;BME280;52962;51.088;3.096;2023-09-19T11:07:00;100663.78;;;20.69;nan
66164;BME280;52962;51.088;3.096;2023-09-19T11:09:47;100655.66;;;20.74;nan
66164;BME280;52962;51.088;3.096;2023-09-19T11:12:50;100672.31;;;20.83;nan
66164;BME280;52962;51.088;3.096;2023-09-19T11:18:55;100654.66;;;20.78;nan
66164;BME280;52962;51.088;3.096;2023-09-19T11:21:52;100661.75;;;20.79;nan
66164;BME280;52962;51.088;3.096;2023-09-19T11:24:31;100659.78;;;20.85;nan
66164;BME280;52962;51.088;3.096;2023-09-19T11:27:10;100669.66;;;20.83;nan
66164;BME280;52962;51.088;3.096;2023-09-19T11:29:40;100652.53;;;20.90;nan
66164;BME280;52962;51.088;3.096;2023-09-19T11:32:09;100648.69;;;21.01;nan
66164;BME280;52962;51.088;3.096;2023-09-19T11:34:40;100655.88;;;20.99;nan
66164;BME280;52962;51.088;3.096;2023-09-19T11:40:29;100646.16;;;20.95;nan
66164;BME280;52962;51.088;3.096;2023-09-19T11:42:59;100653.16;;;21.00;nan
66164;BME280;52962;51.088;3.096;2023-09-19T11:48:29;100644.44;;;20.92;nan
66164;BME280;52962;51.088;3.096;2023-09-19T11:51:00;100639.81;;;20.99;nan
66164;BME280;52962;51.088;3.096;2023-09-19T11:53:35;100639.75;;;21.02;nan
66164;BME280;52962;51.088;3.096;2023-09-19T11:56:06;100649.97;;;21.20;nan
66164;BME280;52962;51.088;3.096;2023-09-19T11:58:38;100646.00;;;21.36;nan
66164;BME280;52962;51.088;3.096;2023-09-19T12:01:06;100646.59;;;21.47;nan
66164;BME280;52962;51.088;3.096;2023-09-19T12:03:42;100638.22;;;21.60;nan
66164;BME280;52962;51.088;3.096;2023-09-19T12:06:17;100637.59;;;21.50;nan
66164;BME280;52962;51.088;3.096;2023-09-19T12:08:45;100639.06;;;21.29;nan
66164;BME280;52962;51.088;3.096;2023-09-19T12:11:16;100639.56;;;21.43;nan
66164;BME280;52962;51.088;3.096;2023-09-19T12:13:45;100629.78;;;21.73;nan
66164;BME280;52962;51.088;3.096;2023-09-19T12:16:17;100643.50;;;21.63;nan
66164;BME280;52962;51.088;3.096;2023-09-19T12:18:49;100630.94;;;21.65;nan
66164;BME280;52962;51.088;3.096;2023-09-19T12:21:27;100637.25;;;21.62;nan
66164;BME280;52962;51.088;3.096;2023-09-19T12:24:11;100627.22;;;21.38;nan
66164;BME280;52962;51.088;3.096;2023-09-19T12:26:41;100621.44;;;21.19;nan
66164;BME280;52962;51.088;3.096;2023-09-19T12:29:12;100650.53;;;20.99;nan
66164;BME280;52962;51.088;3.096;2023-09-19T12:31:52;100641.84;;;20.89;nan
66164;BME280;52962;51.088;3.096;2023-09-19T12:34:22;100643.38;;;20.65;nan
66164;BME280;52962;51.088;3.096;2023-09-19T12:37:06;100651.09;;;20.77;nan
66164;BME280;52962;51.088;3.096;2023-09-19T12:39:39;100639.44;;;20.80;nan
66164;BME280;52962;51.088;3.096;2023-09-19T12:42:10;100633.50;;;20.67;nan
66164;BME280;52962;51.088;3.096;2023-09-19T12:44:42;100641.63;;;20.63;nan
66164;BME280;52962;51.088;3.096;2023-09-19T12:47:12;100653.16;;;20.66;nan
66164;BME280;52962;51.088;3.096;2023-09-19T12:50:05;100654.03;;;20.67;nan
66164;BME280;52962;51.088;3.096;2023-09-19T12:52:37;100639.88;;;20.62;nan
66164;BME280;52962;51.088;3.096;2023-09-19T12:55:07;100645.09;;;20.68;nan
66164;BME280;52962;51.088;3.096;2023-09-19T12:57:38;100642.31;;;20.72;nan
66164;BME280;52962;51.088;3.096;2023-09-19T13:00:07;100642.44;;;20.66;nan
66164;BME280;52962;51.088;3.096;2023-09-19T13:02:37;100642.38;;;20.69;nan
66164;BME280;52962;51.088;3.096;2023-09-19T13:05:51;100647.75;;;20.68;nan
66164;BME280;52962;51.088;3.096;2023-09-19T13:08:25;100648.97;;;20.54;nan
66164;BME280;52962;51.088;3.096;2023-09-19T13:11:09;100646.75;;;20.73;nan
66164;BME280;52962;51.088;3.096;2023-09-19T13:13:41;100648.69;;;20.67;nan
66164;BME280;52962;51.088;3.096;2023-09-19T13:16:16;100641.22;;;20.79;nan
66164;BME280;52962;51.088;3.096;2023-09-19T13:18:52;100636.38;;;20.94;nan
66164;BME280;52962;51.088;3.096;2023-09-19T13:21:28;100627.13;;;21.07;nan
66164;BME280;52962;51.088;3.096;2023-09-19T13:24:19;100631.84;;;21.31;nan
66164;BME280;52962;51.088;3.096;2023-09-19T13:26:47;100623.94;;;21.27;nan
66164;BME280;52962;51.088;3.096;2023-09-19T13:29:15;100620.09;;;21.03;nan
66164;BME280;52962;51.088;3.096;2023-09-19T13:31:46;100641.16;;;20.81;nan
66164;BME280;52962;51.088;3.096;2023-09-19T13:34:14;100641.69;;;20.61;nan
66164;BME280;52962;51.088;3.096;2023-09-19T13:36:44;100649.91;;;20.52;nan
66164;BME280;52962;51.088;3.096;2023-09-19T13:39:15;100651.19;;;20.34;nan
66164;BME280;52962;51.088;3.096;2023-09-19T13:41:46;100646.06;;;20.25;nan
66164;BME280;52962;51.088;3.096;2023-09-19T13:44:15;100642.13;;;20.43;nan